Time;durP1;ratioP1;P1;durP2;ratioP2;P2;SDS_P1;SDS_P2;PMS_P1;PMS_P2;Temp;Humidity;BMP_temperature;BMP_pressure;BME280_temperature;BME280_humidity;BME280_pressure;Samples;Min_cycle;Max_cycle;Signal;HPM_P1;HPM_P2
2023/10/21 00:02:10;;;;;;;5.18;4.05;;;10.60;99.90;;;;;;5059665;28;20123;-87
2023/10/21 00:04:35;;;;;;;7.90;3.63;;;10.50;99.90;;;;;;5085621;28;20040;-88
2023/10/21 00:07:01;;;;;;;10.65;3.20;;;10.50;99.90;;;;;;5112645;27;20032;-88
2023/10/21 00:09:27;;;;;;;4.53;3.28;;;10.50;99.90;;;;;;5075951;28;20032;-87
2023/10/21 00:11:52;;;;;;;6.90;3.50;;;10.50;99.90;;;;;;5092894;28;20020;-88
2023/10/21 00:14:18;;;;;;;7.10;3.63;;;10.40;99.90;;;;;;5060434;28;20116;-87
2023/10/21 00:16:52;;;;;;;4.88;3.40;;;10.40;99.90;;;;;;5092491;28;20039;-88
2023/10/21 00:19:17;;;;;;;3.97;3.53;;;10.40;99.90;;;;;;5081390;28;20063;-87
2023/10/21 00:21:43;;;;;;;5.38;3.35;;;10.30;99.90;;;;;;5069237;28;20060;-88
2023/10/21 00:24:09;;;;;;;6.50;3.08;;;10.30;99.90;;;;;;5100455;28;20028;-88
2023/10/21 00:26:47;;;;;;;5.50;2.97;;;10.20;99.90;;;;;;5070476;28;20016;-88
2023/10/21 00:29:25;;;;;;;5.22;3.00;;;10.30;99.90;;;;;;5083366;28;20045;-88
2023/10/21 00:32:06;;;;;;;9.32;3.50;;;10.30;99.90;;;;;;5066062;28;20054;-88
2023/10/21 00:34:32;;;;;;;4.60;3.80;;;10.30;99.90;;;;;;5102262;28;20479;-88
2023/10/21 00:36:57;;;;;;;8.15;3.95;;;10.30;99.90;;;;;;5067101;28;20051;-88
2023/10/21 00:39:24;;;;;;;6.85;4.22;;;10.40;99.90;;;;;;5087916;28;20020;-88
2023/10/21 00:41:49;;;;;;;5.32;3.35;;;10.50;99.90;;;;;;5107359;28;20023;-88
2023/10/21 00:44:15;;;;;;;6.40;3.38;;;10.50;99.90;;;;;;5082460;28;20028;-88
2023/10/21 00:46:42;;;;;;;4.28;2.92;;;10.60;99.90;;;;;;5079574;28;20020;-87
2023/10/21 00:49:08;;;;;;;4.03;2.53;;;10.70;99.90;;;;;;5064541;28;20035;-87
2023/10/21 00:51:35;;;;;;;5.88;2.85;;;10.70;99.90;;;;;;5071635;28;20031;-88
2023/10/21 00:54:02;;;;;;;4.38;2.25;;;10.70;99.90;;;;;;5065181;28;20059;-88
2023/10/21 00:56:28;;;;;;;3.75;2.22;;;10.70;99.90;;;;;;5074354;28;20024;-88
2023/10/21 00:58:54;;;;;;;5.28;1.92;;;10.70;99.90;;;;;;5087029;28;20024;-88
2023/10/21 01:01:21;;;;;;;2.67;1.58;;;10.70;99.90;;;;;;5077051;28;20749;-88
2023/10/21 01:04:18;;;;;;;2.08;1.83;;;10.80;99.90;;;;;;5092312;28;20491;-88
2023/10/21 01:06:44;;;;;;;1.90;1.38;;;10.80;99.90;;;;;;5083956;28;20029;-88
2023/10/21 01:09:16;;;;;;;1.98;1.27;;;10.90;99.90;;;;;;5092051;28;20024;-88
2023/10/21 01:11:42;;;;;;;4.90;1.58;;;10.90;99.90;;;;;;5091603;28;20434;-88
2023/10/21 01:14:09;;;;;;;1.60;1.23;;;10.90;99.90;;;;;;5074690;28;20145;-89
2023/10/21 01:16:35;;;;;;;5.05;1.30;;;11.00;99.90;;;;;;5090764;28;20035;-88
2023/10/21 01:19:01;;;;;;;1.10;1.00;;;11.10;99.90;;;;;;5102465;28;20035;-87
2023/10/21 01:21:26;;;;;;;1.95;1.45;;;11.10;99.90;;;;;;5066997;28;20050;-89
2023/10/21 01:23:52;;;;;;;1.27;0.98;;;11.20;99.90;;;;;;5083839;28;20032;-88
2023/10/21 01:26:18;;;;;;;3.75;1.20;;;11.20;99.90;;;;;;5093267;28;20106;-89
2023/10/21 01:28:44;;;;;;;3.42;1.40;;;11.20;99.90;;;;;;5085701;28;20038;-88
2023/10/21 01:31:09;;;;;;;1.00;0.90;;;11.20;99.90;;;;;;5061815;28;20379;-89
2023/10/21 01:33:35;;;;;;;2.83;1.40;;;11.20;99.90;;;;;;5087661;28;20131;-88
2023/10/21 01:36:01;;;;;;;2.72;1.08;;;11.20;99.90;;;;;;5064856;28;20043;-89
2023/10/21 01:38:27;;;;;;;2.90;0.82;;;11.30;99.90;;;;;;5079437;28;20035;-88
2023/10/21 01:40:52;;;;;;;3.72;0.80;;;11.40;99.90;;;;;;5079243;28;20084;-88
2023/10/21 01:43:19;;;;;;;1.73;0.93;;;11.50;99.90;;;;;;5075601;28;20021;-89
2023/10/21 01:45:45;;;;;;;6.70;0.68;;;11.60;99.90;;;;;;5091871;28;20028;-89
2023/10/21 01:48:11;;;;;;;3.13;0.45;;;11.70;99.90;;;;;;5093933;28;20383;-88
2023/10/21 01:50:37;;;;;;;6.72;0.70;;;11.80;99.90;;;;;;5091365;28;20048;-90
2023/10/21 01:53:03;;;;;;;3.28;0.63;;;11.90;99.90;;;;;;5119651;27;20063;-89
2023/10/21 01:55:28;;;;;;;0.40;0.40;;;12.00;99.90;;;;;;5100299;28;20176;-89
2023/10/21 01:57:54;;;;;;;1.13;0.30;;;12.00;99.90;;;;;;5066632;28;20110;-87
2023/10/21 02:00:20;;;;;;;2.67;0.38;;;12.10;99.90;;;;;;5060251;28;20024;-88
2023/10/21 02:02:53;;;;;;;1.02;0.30;;;12.20;99.90;;;;;;5058543;28;20036;-88
2023/10/21 02:05:20;;;;;;;0.25;0.22;;;12.20;99.90;;;;;;5093711;28;20030;-88
2023/10/21 02:07:46;;;;;;;0.85;0.40;;;12.30;99.90;;;;;;5101439;28;20047;-87
2023/10/21 02:10:12;;;;;;;0.50;0.40;;;12.40;99.90;;;;;;5068486;28;20077;-88
2023/10/21 02:12:38;;;;;;;3.92;1.20;;;12.40;99.90;;;;;;5060164;28;20463;-89
2023/10/21 02:15:06;;;;;;;3.40;0.40;;;12.50;99.90;;;;;;5093483;28;20031;-88
2023/10/21 02:17:32;;;;;;;2.92;0.45;;;12.40;99.90;;;;;;5061889;28;20074;-87
2023/10/21 02:19:58;;;;;;;1.00;0.40;;;12.50;99.90;;;;;;5085717;28;20027;-88
2023/10/21 02:22:25;;;;;;;1.13;0.20;;;12.50;99.90;;;;;;5062708;28;20017;-88
2023/10/21 02:24:53;;;;;;;0.73;0.50;;;12.50;99.90;;;;;;5080631;28;20085;-87
2023/10/21 02:27:20;;;;;;;1.67;0.30;;;12.50;99.90;;;;;;5060953;28;20471;-88
2023/10/21 02:29:45;;;;;;;0.45;0.25;;;12.50;99.90;;;;;;5058093;28;20021;-87
2023/10/21 02:32:11;;;;;;;0.98;0.38;;;12.50;99.90;;;;;;5066432;28;20031;-88
2023/10/21 02:34:38;;;;;;;2.17;0.30;;;12.50;99.90;;;;;;5085723;28;20032;-88
2023/10/21 02:37:03;;;;;;;1.27;0.40;;;12.50;99.90;;;;;;5083729;28;20035;-89
2023/10/21 02:39:29;;;;;;;0.30;0.30;;;12.50;99.90;;;;;;5077201;28;20482;-88
2023/10/21 02:41:55;;;;;;;1.08;0.50;;;12.50;99.90;;;;;;5060376;28;20462;-88
2023/10/21 02:44:21;;;;;;;1.13;0.30;;;12.50;99.90;;;;;;5072606;28;20139;-88
2023/10/21 02:46:48;;;;;;;2.88;0.30;;;12.50;99.90;;;;;;5057089;28;20169;-88
2023/10/21 02:49:14;;;;;;;5.00;0.40;;;12.40;99.90;;;;;;5108011;27;20028;-88
2023/10/21 02:51:41;;;;;;;2.80;0.40;;;12.30;99.90;;;;;;5076971;28;20107;-88
2023/10/21 02:54:07;;;;;;;3.08;0.20;;;12.30;99.90;;;;;;5061495;28;20074;-88
2023/10/21 02:56:34;;;;;;;0.73;0.30;;;12.30;99.90;;;;;;5091220;28;20016;-87
2023/10/21 02:59:00;;;;;;;0.40;0.32;;;12.30;99.90;;;;;;5110786;28;20016;-88
2023/10/21 03:01:26;;;;;;;1.58;0.30;;;12.20;99.90;;;;;;5094473;28;20008;-89
2023/10/21 03:03:52;;;;;;;0.63;0.30;;;12.30;99.90;;;;;;5090763;28;20039;-87
2023/10/21 03:06:21;;;;;;;0.60;0.40;;;12.30;99.90;;;;;;5100736;28;20020;-87
2023/10/21 03:08:47;;;;;;;7.20;0.50;;;12.20;99.90;;;;;;5107609;28;20031;-88
2023/10/21 03:11:14;;;;;;;2.30;0.50;;;12.10;99.90;;;;;;5077124;28;20024;-88
2023/10/21 03:13:40;;;;;;;0.50;0.32;;;12.00;99.90;;;;;;5080702;28;20032;-87
2023/10/21 03:16:14;;;;;;;4.10;0.30;;;12.10;99.90;;;;;;5080762;28;20039;-88
2023/10/21 03:18:45;;;;;;;0.90;0.45;;;12.10;99.90;;;;;;5114489;28;20396;-87
2023/10/21 03:21:11;;;;;;;;;;;12.20;99.90;;;;;;5097541;28;20040;-87
2023/10/21 03:23:37;;;;;;;2.08;0.57;;;12.20;99.90;;;;;;5076655;28;19918;-88
2023/10/21 03:26:04;;;;;;;0.52;0.40;;;12.20;99.90;;;;;;5097279;28;20039;-87
2023/10/21 03:28:30;;;;;;;1.88;0.60;;;12.20;99.90;;;;;;5054281;28;20112;-89
2023/10/21 03:30:57;;;;;;;0.88;0.55;;;12.20;99.90;;;;;;5081031;28;20486;-88
2023/10/21 03:33:27;;;;;;;0.85;0.55;;;12.20;99.90;;;;;;5091148;28;20028;-87
2023/10/21 03:35:54;;;;;;;3.97;0.63;;;12.20;99.90;;;;;;5120662;28;20497;-88
2023/10/21 03:38:21;;;;;;;3.00;0.60;;;12.20;99.90;;;;;;5072909;28;20051;-89
2023/10/21 03:44:46;;;;;;;8.40;0.93;;;12.10;99.90;;;;;;5096518;28;20043;-87
2023/10/21 03:47:11;;;;;;;4.80;0.55;;;12.10;99.90;;;;;;5105555;28;20046;-88
2023/10/21 03:49:37;;;;;;;5.72;0.90;;;12.10;99.90;;;;;;5083274;28;20383;-88
2023/10/21 03:52:03;;;;;;;1.35;0.50;;;12.10;99.90;;;;;;5085056;28;20032;-88
2023/10/21 03:54:29;;;;;;;4.10;0.63;;;12.10;99.90;;;;;;5069612;28;20032;-88
2023/10/21 03:56:54;;;;;;;3.95;0.60;;;12.10;99.90;;;;;;5091209;28;20056;-88
2023/10/21 03:59:20;;;;;;;1.00;0.47;;;12.10;99.90;;;;;;5081166;28;20040;-88
2023/10/21 04:01:46;;;;;;;0.98;0.40;;;12.10;99.90;;;;;;5087710;28;20036;-88
2023/10/21 04:04:11;;;;;;;0.40;0.40;;;12.10;99.90;;;;;;5120526;27;20034;-89
2023/10/21 04:06:37;;;;;;;1.05;0.52;;;12.10;99.90;;;;;;5120466;27;20051;-87
2023/10/21 04:09:03;;;;;;;5.60;1.02;;;12.10;99.90;;;;;;5070060;28;20453;-88
2023/10/21 04:11:29;;;;;;;1.52;0.60;;;12.10;99.90;;;;;;5098311;28;20073;-88
2023/10/21 04:13:54;;;;;;;0.77;0.60;;;12.10;99.90;;;;;;5117711;27;20110;-88
2023/10/21 04:16:20;;;;;;;2.40;0.82;;;12.10;99.90;;;;;;5107917;28;20035;-87
2023/10/21 04:18:46;;;;;;;9.90;0.82;;;12.10;99.90;;;;;;5086097;28;20077;-88
2023/10/21 04:21:12;;;;;;;1.75;0.75;;;12.10;99.90;;;;;;5082823;28;20394;-87
2023/10/21 04:23:37;;;;;;;1.70;0.90;;;12.10;99.90;;;;;;5078317;28;20079;-87
2023/10/21 04:26:04;;;;;;;3.85;0.50;;;12.10;99.90;;;;;;5082602;28;20793;-88
2023/10/21 04:28:30;;;;;;;1.48;0.60;;;12.10;99.90;;;;;;5065936;28;20088;-88
2023/10/21 04:30:56;;;;;;;3.33;0.73;;;12.10;99.90;;;;;;5087008;28;20428;-88
2023/10/21 04:33:21;;;;;;;4.70;1.20;;;12.10;99.90;;;;;;5068247;28;20032;-87
2023/10/21 04:35:47;;;;;;;1.17;0.60;;;12.00;99.90;;;;;;5082834;28;20402;-88
2023/10/21 04:38:13;;;;;;;3.53;0.80;;;12.10;99.90;;;;;;5087041;28;20114;-88
2023/10/21 04:40:39;;;;;;;1.75;0.50;;;12.10;99.90;;;;;;5085632;28;20769;-88
2023/10/21 04:43:04;;;;;;;2.58;1.30;;;12.10;99.90;;;;;;5084509;28;20035;-88
2023/10/21 04:45:31;;;;;;;9.57;2.47;;;12.00;99.90;;;;;;5067426;28;20561;-88
2023/10/21 04:47:56;;;;;;;1.33;1.10;;;12.00;99.90;;;;;;5068498;28;20011;-88
2023/10/21 04:50:22;;;;;;;2.03;1.10;;;12.00;99.90;;;;;;5078438;28;20093;-89
2023/10/21 04:52:48;;;;;;;4.53;1.10;;;12.00;99.90;;;;;;5082029;28;20069;-88
2023/10/21 04:55:13;;;;;;;1.88;1.35;;;12.00;99.90;;;;;;5080586;28;20036;-88
2023/10/21 04:57:39;;;;;;;3.35;0.80;;;12.00;99.90;;;;;;5101016;28;20023;-87
2023/10/21 05:00:08;;;;;;;1.27;0.88;;;12.00;99.90;;;;;;5101479;28;20024;-88
2023/10/21 05:02:33;;;;;;;2.20;0.57;;;12.00;99.90;;;;;;5082256;28;20031;-88
2023/10/21 05:05:00;;;;;;;2.47;1.30;;;12.00;99.90;;;;;;5084954;28;20459;-87
2023/10/21 05:07:26;;;;;;;5.40;1.25;;;11.90;99.90;;;;;;5116129;27;20023;-88
2023/10/21 05:09:52;;;;;;;5.05;1.60;;;11.90;99.90;;;;;;5079946;28;20024;-88
2023/10/21 05:12:19;;;;;;;1.27;0.70;;;11.80;99.90;;;;;;5086668;28;20110;-89
2023/10/21 05:14:45;;;;;;;4.28;0.68;;;11.80;99.90;;;;;;5082188;28;20585;-87
2023/10/21 05:17:11;;;;;;;1.77;0.70;;;11.90;99.90;;;;;;5102625;28;20555;-88
2023/10/21 05:19:37;;;;;;;1.35;0.90;;;11.80;99.90;;;;;;5059565;28;20028;-87
2023/10/21 05:22:03;;;;;;;3.03;1.08;;;11.80;99.90;;;;;;5099755;28;20375;-87
2023/10/21 05:24:28;;;;;;;3.10;1.42;;;11.60;99.90;;;;;;5068847;28;20391;-88
2023/10/21 05:26:54;;;;;;;2.53;1.05;;;11.60;99.90;;;;;;5109610;28;20030;-88
2023/10/21 05:29:20;;;;;;;4.50;1.75;;;11.50;99.90;;;;;;5062218;28;20386;-87
2023/10/21 05:31:46;;;;;;;2.15;1.20;;;11.50;99.90;;;;;;5067474;28;20062;-88
2023/10/21 05:34:17;;;;;;;3.50;1.70;;;11.50;99.90;;;;;;5082991;28;20601;-88
2023/10/21 05:36:46;;;;;;;;;;;11.50;99.90;;;;;;5081070;28;20023;-88
2023/10/21 05:39:12;;;;;;;1.50;1.30;;;11.50;99.90;;;;;;5079726;28;19965;-88
2023/10/21 05:41:41;;;;;;;2.08;1.15;;;11.50;99.90;;;;;;5083177;28;20082;-87
2023/10/21 05:44:08;;;;;;;1.65;1.20;;;11.50;99.90;;;;;;5104764;28;20393;-87
2023/10/21 05:46:33;;;;;;;4.28;1.10;;;11.50;99.90;;;;;;5085411;28;20519;-88
2023/10/21 05:48:59;;;;;;;6.22;1.20;;;11.50;99.90;;;;;;5078109;28;20032;-89
2023/10/21 05:51:25;;;;;;;6.55;1.10;;;11.50;99.90;;;;;;5114396;27;20510;-87
2023/10/21 05:53:51;;;;;;;0.85;0.68;;;11.50;99.90;;;;;;5083811;28;20390;-88
2023/10/21 05:56:17;;;;;;;4.90;0.98;;;11.60;99.90;;;;;;5061439;28;20020;-88
2023/10/21 05:58:43;;;;;;;3.38;0.85;;;11.60;99.90;;;;;;5114249;27;20078;-86
2023/10/21 06:01:11;;;;;;;2.33;0.90;;;11.60;99.90;;;;;;5116916;27;20024;-86
2023/10/21 06:03:37;;;;;;;3.10;1.00;;;11.60;99.90;;;;;;5092969;28;20055;-86
2023/10/21 06:06:03;;;;;;;1.48;0.80;;;11.70;99.90;;;;;;5083640;28;20474;-86
2023/10/21 06:08:29;;;;;;;2.30;0.75;;;11.60;99.90;;;;;;5062053;28;20035;-86
2023/10/21 06:10:56;;;;;;;3.85;1.02;;;11.60;99.90;;;;;;5095500;28;20031;-86
2023/10/21 06:13:22;;;;;;;2.58;0.85;;;11.60;99.90;;;;;;5076882;28;20039;-86
2023/10/21 06:15:48;;;;;;;2.22;1.02;;;11.70;99.90;;;;;;5082794;28;20020;-86
2023/10/21 06:18:14;;;;;;;2.28;0.73;;;11.70;99.90;;;;;;5097330;28;20028;-86
2023/10/21 06:20:40;;;;;;;8.38;2.20;;;11.80;99.90;;;;;;5084948;28;20482;-86
2023/10/21 06:23:06;;;;;;;3.30;0.75;;;11.80;99.90;;;;;;5061468;28;20036;-86
2023/10/21 06:25:32;;;;;;;2.60;1.17;;;11.80;99.90;;;;;;5100314;28;20087;-86
2023/10/21 06:27:58;;;;;;;2.85;1.27;;;11.90;99.90;;;;;;5065348;28;20031;-86
2023/10/21 06:30:24;;;;;;;15.30;7.68;;;12.00;99.90;;;;;;5092405;28;20043;-87
2023/10/21 06:32:49;;;;;;;27.98;13.38;;;12.00;99.90;;;;;;5079571;28;20032;-86
2023/10/21 06:35:15;;;;;;;43.75;22.92;;;12.00;99.90;;;;;;5083901;28;20705;-87
2023/10/21 06:37:41;;;;;;;3.65;1.90;;;12.10;99.90;;;;;;5067960;28;20024;-85
2023/10/21 06:40:07;;;;;;;7.20;2.80;;;12.20;99.90;;;;;;5064477;28;20035;-86
2023/10/21 06:42:33;;;;;;;1.95;1.30;;;12.20;99.90;;;;;;5086386;28;20031;-86
2023/10/21 06:44:59;;;;;;;5.78;1.05;;;12.30;99.90;;;;;;5091737;28;20126;-86
2023/10/21 06:47:25;;;;;;;3.63;1.10;;;12.30;99.90;;;;;;5093622;28;20032;-86
2023/10/21 06:49:51;;;;;;;4.30;1.13;;;12.30;99.90;;;;;;5059650;28;20039;-86
2023/10/21 06:52:20;;;;;;;2.33;0.93;;;12.40;99.90;;;;;;5063529;28;20031;-85
2023/10/21 06:54:46;;;;;;;3.78;1.05;;;12.40;99.90;;;;;;5073031;28;20054;-85
2023/10/21 06:57:19;;;;;;;3.05;1.10;;;12.40;99.90;;;;;;5076159;28;20066;-85
2023/10/21 06:59:46;;;;;;;3.00;1.10;;;12.40;99.90;;;;;;5064362;28;20080;-85
2023/10/21 07:02:11;;;;;;;1.15;1.05;;;12.30;99.90;;;;;;5078436;28;20040;-85
2023/10/21 07:04:37;;;;;;;3.08;0.75;;;12.20;99.90;;;;;;5107818;28;20505;-85
2023/10/21 07:07:03;;;;;;;2.08;1.08;;;12.10;99.90;;;;;;5077299;28;20024;-86
2023/10/21 07:09:30;;;;;;;5.45;2.08;;;12.00;99.90;;;;;;5073368;28;20440;-85
2023/10/21 07:11:56;;;;;;;12.85;2.38;;;11.90;99.90;;;;;;5057838;28;20035;-85
2023/10/21 07:14:22;;;;;;;2.67;2.17;;;11.80;99.90;;;;;;5090871;28;20024;-86
2023/10/21 07:16:47;;;;;;;6.03;3.13;;;11.70;99.90;;;;;;5071348;28;20031;-85
2023/10/21 07:19:13;;;;;;;4.43;2.30;;;11.60;99.90;;;;;;5088004;28;20028;-85
2023/10/21 07:21:39;;;;;;;6.30;1.40;;;11.60;99.90;;;;;;5098923;27;20035;-86
2023/10/21 07:24:11;;;;;;;1.85;0.77;;;11.60;99.90;;;;;;5063889;28;20035;-86
2023/10/21 07:26:38;;;;;;;3.90;0.60;;;11.50;99.90;;;;;;5081494;28;20359;-86
2023/10/21 07:29:05;;;;;;;3.65;0.80;;;11.60;99.90;;;;;;5101901;28;20028;-86
2023/10/21 07:31:31;;;;;;;6.25;0.90;;;11.60;99.90;;;;;;5090567;28;20040;-86
2023/10/21 07:33:57;;;;;;;4.20;1.20;;;11.60;99.90;;;;;;5100338;28;20024;-86
2023/10/21 07:36:23;;;;;;;4.28;0.85;;;11.70;99.90;;;;;;5084632;28;20024;-86
2023/10/21 07:38:48;;;;;;;3.13;1.02;;;11.70;99.90;;;;;;5065821;28;20081;-86
2023/10/21 07:41:14;;;;;;;4.95;1.50;;;11.80;99.90;;;;;;5059806;28;20031;-85
2023/10/21 07:43:41;;;;;;;1.75;1.52;;;11.80;99.90;;;;;;5087785;28;20040;-87
2023/10/21 07:46:07;;;;;;;3.03;0.80;;;11.70;99.90;;;;;;5114196;27;20077;-86
2023/10/21 07:48:32;;;;;;;4.32;1.60;;;11.70;99.90;;;;;;5109076;28;20020;-86
2023/10/21 07:50:58;;;;;;;1.80;0.77;;;11.80;99.90;;;;;;5076542;28;20036;-86
2023/10/21 07:53:24;;;;;;;5.55;1.60;;;12.00;99.90;;;;;;5103704;27;20036;-85
2023/10/21 07:55:50;;;;;;;2.67;1.63;;;12.10;99.90;;;;;;5104500;28;20047;-86
2023/10/21 07:58:16;;;;;;;1.67;1.10;;;12.30;99.90;;;;;;5096785;28;20494;-86
2023/10/21 08:00:43;;;;;;;2.08;0.80;;;12.40;99.90;;;;;;5114985;27;20020;-87
2023/10/21 08:03:08;;;;;;;6.03;1.83;;;12.40;99.90;;;;;;5078279;28;20032;-87
2023/10/21 08:05:34;;;;;;;6.32;2.08;;;12.40;99.90;;;;;;5070829;28;20394;-86
2023/10/21 08:08:00;;;;;;;7.25;1.42;;;12.40;99.90;;;;;;5082035;28;20572;-86
2023/10/21 08:10:28;;;;;;;5.13;1.17;;;12.40;99.90;;;;;;5111618;27;20060;-86
2023/10/21 08:12:53;;;;;;;4.30;1.60;;;12.40;99.90;;;;;;5118309;27;20128;-85
2023/10/21 08:15:19;;;;;;;4.80;2.20;;;12.40;99.90;;;;;;5083516;28;20081;-86
2023/10/21 08:17:45;;;;;;;12.65;4.38;;;12.50;99.90;;;;;;5098838;28;20372;-86
2023/10/21 08:20:11;;;;;;;5.22;1.90;;;12.60;99.90;;;;;;5107671;28;20380;-85
2023/10/21 08:22:37;;;;;;;5.60;1.88;;;12.70;99.90;;;;;;5066771;28;20039;-86
2023/10/21 08:25:02;;;;;;;3.72;0.85;;;12.70;99.90;;;;;;5071281;28;20039;-86
2023/10/21 08:27:28;;;;;;;8.75;2.30;;;12.80;99.90;;;;;;5073962;28;20024;-86
2023/10/21 08:29:54;;;;;;;4.43;1.92;;;12.80;99.90;;;;;;5077423;28;20108;-86
2023/10/21 08:32:20;;;;;;;2.88;1.02;;;12.80;99.90;;;;;;5116672;27;20073;-86
2023/10/21 08:34:46;;;;;;;2.35;0.80;;;12.80;99.90;;;;;;5104537;28;20039;-86
2023/10/21 08:37:12;;;;;;;6.55;0.90;;;12.70;99.90;;;;;;5111267;28;20118;-86
2023/10/21 08:39:37;;;;;;;2.65;0.95;;;12.70;99.90;;;;;;5073949;28;20495;-86
2023/10/21 08:42:05;;;;;;;3.25;1.30;;;12.60;99.90;;;;;;5109156;27;20023;-86
2023/10/21 08:44:32;;;;;;;2.63;1.00;;;12.60;99.90;;;;;;5093741;28;20047;-86
2023/10/21 08:47:02;;;;;;;4.00;1.80;;;12.50;99.90;;;;;;5119342;27;20115;-86
2023/10/21 08:49:30;;;;;;;4.43;1.10;;;12.50;99.90;;;;;;5065033;28;20085;-85
2023/10/21 08:51:58;;;;;;;12.70;6.20;;;12.40;99.90;;;;;;5081135;28;20032;-86
2023/10/21 08:54:45;;;;;;;10.88;5.13;;;12.50;99.90;;;;;;5107737;28;20084;-87
2023/10/21 08:57:12;;;;;;;17.10;4.97;;;12.60;99.90;;;;;;5083530;28;20031;-86
2023/10/21 08:59:38;;;;;;;14.80;4.03;;;12.50;99.90;;;;;;5099271;28;20027;-84
2023/10/21 09:02:05;;;;;;;5.07;1.70;;;12.60;99.90;;;;;;5087613;28;20024;-86
2023/10/21 09:04:32;;;;;;;11.30;3.47;;;12.70;99.90;;;;;;5078680;28;20036;-86
2023/10/21 09:06:59;;;;;;;4.88;0.95;;;12.80;99.90;;;;;;5088569;28;20051;-86
2023/10/21 09:09:29;;;;;;;5.80;1.55;;;12.80;99.90;;;;;;5068408;28;20020;-86
2023/10/21 09:12:15;;;;;;;5.55;2.10;;;12.90;99.90;;;;;;5125390;27;20471;-85
2023/10/21 09:15:14;;;;;;;4.45;1.17;;;12.90;99.90;;;;;;5091976;28;20439;-86
2023/10/21 09:17:52;;;;;;;7.57;2.22;;;13.10;99.90;;;;;;5105160;28;20027;-86
2023/10/21 09:20:19;;;;;;;8.38;1.30;;;13.30;99.90;;;;;;5068833;28;20123;-86
2023/10/21 09:22:49;;;;;;;6.63;2.03;;;13.20;99.90;;;;;;5099749;28;20055;-85
2023/10/21 09:25:22;;;;;;;1.00;0.70;;;13.00;99.90;;;;;;5075901;28;20093;-86
2023/10/21 09:27:55;;;;;;;2.33;1.30;;;12.90;99.90;;;;;;5097179;28;20043;-86
2023/10/21 09:30:26;;;;;;;6.47;1.27;;;13.00;99.90;;;;;;5072069;28;20046;-86
2023/10/21 09:33:08;;;;;;;8.07;1.58;;;13.40;99.90;;;;;;5104785;28;20463;-85
2023/10/21 09:35:36;;;;;;;2.85;0.88;;;13.80;99.90;;;;;;5062517;28;20506;-86
2023/10/21 09:38:16;;;;;;;6.35;1.92;;;14.10;99.90;;;;;;5103272;28;20039;-86
2023/10/21 09:40:42;;;;;;;11.25;2.22;;;13.90;99.90;;;;;;5089551;28;20127;-86
2023/10/21 09:43:11;;;;;;;5.85;1.85;;;14.00;99.90;;;;;;5048152;28;20084;-86
2023/10/21 09:45:41;;;;;;;6.10;1.50;;;14.00;99.90;;;;;;5057290;28;20035;-85
2023/10/21 09:48:11;;;;;;;3.95;1.15;;;14.00;99.90;;;;;;5074233;28;20620;-86
2023/10/21 09:50:42;;;;;;;3.25;1.50;;;13.80;99.90;;;;;;5080241;28;20029;-85
2023/10/21 09:53:23;;;;;;;6.03;2.85;;;13.40;99.90;;;;;;5063427;28;20037;-86
2023/10/21 09:55:49;;;;;;;2.60;1.42;;;13.70;99.90;;;;;;5072313;28;20083;-85
2023/10/21 09:58:17;;;;;;;7.90;2.10;;;13.80;99.90;;;;;;5108684;28;20032;-85
2023/10/21 10:00:54;;;;;;;4.03;2.15;;;14.40;99.90;;;;;;5074480;28;20030;-86
2023/10/21 10:03:20;;;;;;;1.85;0.80;;;15.30;99.90;;;;;;5094112;28;20031;-86
2023/10/21 10:05:46;;;;;;;4.22;1.55;;;15.90;99.90;;;;;;5084438;28;20020;-86
2023/10/21 10:08:12;;;;;;;2.53;0.88;;;16.30;99.90;;;;;;5068762;28;20023;-86
2023/10/21 10:10:39;;;;;;;2.53;0.75;;;16.90;99.90;;;;;;5064739;28;20685;-86
2023/10/21 10:13:11;;;;;;;3.85;0.55;;;16.90;99.90;;;;;;5059640;28;20058;-84
2023/10/21 10:15:38;;;;;;;5.22;0.98;;;16.40;99.90;;;;;;5070960;28;20047;-86
2023/10/21 10:18:08;;;;;;;5.20;0.95;;;16.10;99.90;;;;;;5071631;28;21641;-86
2023/10/21 10:20:43;;;;;;;3.90;0.75;;;16.10;99.90;;;;;;5054627;28;20035;-86
2023/10/21 10:23:09;;;;;;;2.05;0.77;;;16.30;99.90;;;;;;5106442;27;20036;-86
2023/10/21 10:25:36;;;;;;;9.23;3.15;;;15.60;99.90;;;;;;5100998;28;20072;-86
2023/10/21 10:28:25;;;;;;;3.38;1.25;;;15.20;99.90;;;;;;5085496;28;20084;-86
2023/10/21 10:30:52;;;;;;;2.72;1.20;;;15.00;99.90;;;;;;5082281;28;20042;-86
2023/10/21 10:33:31;;;;;;;7.38;1.45;;;14.90;99.90;;;;;;5078118;28;20126;-87
2023/10/21 10:35:57;;;;;;;5.25;1.80;;;14.90;99.90;;;;;;5075790;28;20036;-86
2023/10/21 10:38:27;;;;;;;7.32;3.00;;;14.80;99.90;;;;;;5066032;28;20051;-87
2023/10/21 10:41:07;;;;;;;1.42;0.57;;;15.20;99.90;;;;;;5085866;28;20035;-86
2023/10/21 10:43:34;;;;;;;7.55;1.20;;;15.20;99.90;;;;;;5052892;28;20032;-86
2023/10/21 10:46:00;;;;;;;1.60;0.80;;;14.90;99.90;;;;;;5106525;28;20025;-87
2023/10/21 10:48:29;;;;;;;8.82;1.40;;;14.70;99.90;;;;;;5057422;28;20018;-86
2023/10/21 10:51:00;;;;;;;1.52;0.70;;;14.70;99.90;;;;;;5080198;28;20051;-85
2023/10/21 10:53:26;;;;;;;;;;;14.50;99.90;;;;;;5074177;28;20563;-86
2023/10/21 10:55:54;;;;;;;3.03;0.98;;;14.30;99.90;;;;;;5082730;28;19959;-86
2023/10/21 10:58:20;;;;;;;2.72;1.08;;;14.10;99.90;;;;;;5059847;28;20111;-85
2023/10/21 11:00:47;;;;;;;9.60;1.45;;;14.00;99.90;;;;;;5090210;28;20064;-86
2023/10/21 11:03:22;;;;;;;7.57;1.15;;;13.90;99.90;;;;;;5081434;28;20106;-86
2023/10/21 11:05:48;;;;;;;1.60;1.00;;;13.70;99.90;;;;;;5090047;28;20420;-86
2023/10/21 11:08:15;;;;;;;2.05;1.10;;;13.70;99.90;;;;;;5055123;28;20050;-86
2023/10/21 11:10:41;;;;;;;2.47;0.60;;;13.70;99.90;;;;;;5066552;28;20032;-86
2023/10/21 11:13:07;;;;;;;4.07;1.00;;;13.90;99.90;;;;;;5073166;28;20024;-86
2023/10/21 11:15:41;;;;;;;5.53;1.00;;;14.10;99.90;;;;;;5073427;28;20027;-86
2023/10/21 11:18:08;;;;;;;4.28;1.25;;;14.40;99.90;;;;;;5081861;28;20035;-86
2023/10/21 11:20:34;;;;;;;4.93;1.08;;;14.50;99.90;;;;;;5074266;28;20020;-86
2023/10/21 11:23:10;;;;;;;6.18;1.30;;;14.30;99.90;;;;;;5084624;28;20027;-86
2023/10/21 11:25:36;;;;;;;3.63;0.95;;;14.10;99.90;;;;;;5065013;28;20034;-85
2023/10/21 11:28:02;;;;;;;3.90;1.23;;;14.60;99.90;;;;;;5074419;28;20028;-86
2023/10/21 11:30:29;;;;;;;2.80;1.10;;;15.30;99.90;;;;;;5092487;28;20058;-86
2023/10/21 11:32:55;;;;;;;2.75;0.88;;;16.10;99.90;;;;;;5084086;28;20482;-86
2023/10/21 11:35:23;;;;;;;8.30;0.80;;;16.80;99.90;;;;;;5073190;28;20063;-86
2023/10/21 11:37:55;;;;;;;3.30;1.42;;;16.80;99.90;;;;;;5057357;28;20696;-86
2023/10/21 11:40:21;;;;;;;;;;;16.80;99.90;;;;;;5074778;28;20479;-87
2023/10/21 11:42:58;;;;;;;7.68;1.10;;;16.70;99.90;;;;;;5080946;28;19912;-86
2023/10/21 11:45:29;;;;;;;2.60;0.75;;;16.40;99.90;;;;;;5106671;28;20086;-86
2023/10/21 11:48:00;;;;;;;6.10;0.80;;;16.00;99.90;;;;;;5114398;28;20032;-86
2023/10/21 11:50:33;;;;;;;1.92;0.60;;;15.30;99.90;;;;;;5052484;28;20111;-86
2023/10/21 11:53:20;;;;;;;7.95;1.42;;;14.90;99.90;;;;;;5054297;28;20032;-86
2023/10/21 12:33:53;;;;;;;1.90;1.00;;;15.30;99.90;;;;;;5078500;28;20034;-86
2023/10/21 12:41:53;;;;;;;3.50;1.02;;;15.30;99.90;;;;;;5110762;28;20095;-87
2023/10/21 12:44:27;;;;;;;7.07;1.90;;;15.30;99.90;;;;;;5111259;28;20032;-86
2023/10/21 12:46:56;;;;;;;6.55;2.08;;;15.30;99.90;;;;;;5110513;28;20119;-87
2023/10/21 12:49:24;;;;;;;9.60;2.03;;;15.30;99.90;;;;;;5076846;28;20031;-87
2023/10/21 12:51:54;;;;;;;4.90;1.27;;;15.30;99.90;;;;;;5076992;28;20028;-87
2023/10/21 12:54:20;;;;;;;8.52;1.90;;;15.30;99.90;;;;;;5077631;28;20040;-87
2023/10/21 12:56:46;;;;;;;3.58;1.20;;;15.40;99.90;;;;;;5093964;28;20032;-87
2023/10/21 12:59:11;;;;;;;6.28;2.25;;;15.60;99.90;;;;;;5077433;28;20020;-87
2023/10/21 13:01:40;;;;;;;11.50;2.85;;;15.70;99.90;;;;;;5094280;28;20728;-86
2023/10/21 13:04:06;;;;;;;3.38;1.23;;;15.90;99.90;;;;;;5077574;28;20839;-87
2023/10/21 13:06:33;;;;;;;10.20;1.42;;;16.00;99.90;;;;;;5077530;28;20024;-87
2023/10/21 13:08:58;;;;;;;4.00;0.88;;;15.90;99.90;;;;;;5077016;28;20031;-87
2023/10/21 13:11:24;;;;;;;5.47;1.10;;;15.70;99.90;;;;;;5075223;28;20032;-86
2023/10/21 13:13:50;;;;;;;4.30;1.40;;;15.30;99.90;;;;;;5071998;28;20135;-86
2023/10/21 13:16:17;;;;;;;3.97;0.63;;;15.10;99.90;;;;;;5086649;28;20036;-86
2023/10/21 13:18:42;;;;;;;8.10;0.65;;;15.20;99.90;;;;;;5099583;28;20032;-86
2023/10/21 13:21:08;;;;;;;5.82;0.98;;;15.40;99.90;;;;;;5060673;28;20507;-86
2023/10/21 13:23:43;;;;;;;2.92;1.20;;;15.40;99.90;;;;;;5056137;28;20492;-87
2023/10/21 13:26:11;;;;;;;5.15;1.25;;;15.30;99.90;;;;;;5071792;28;20032;-86
2023/10/21 13:28:37;;;;;;;4.47;1.20;;;15.10;99.90;;;;;;5072141;28;20039;-87
2023/10/21 13:31:05;;;;;;;4.55;2.00;;;15.00;99.90;;;;;;5112383;28;20032;-87
2023/10/21 13:33:31;;;;;;;7.70;1.95;;;14.80;99.90;;;;;;5080391;28;20032;-87
2023/10/21 13:35:58;;;;;;;5.50;2.75;;;14.60;99.90;;;;;;5091381;28;20128;-87
2023/10/21 13:38:25;;;;;;;4.45;2.53;;;14.50;99.90;;;;;;5092092;28;20056;-87